sensor_id;sensor_type;location;lat;lon;timestamp;P1;durP1;ratioP1;P2;durP2;ratioP2
85328;SDS011;76315;47.638;21.652;2024-02-26T00:00:29;24.88;;;13.00;;
85328;SDS011;76315;47.638;21.652;2024-02-26T00:02:55;25.25;;;12.40;;
85328;SDS011;76315;47.638;21.652;2024-02-26T00:05:21;26.67;;;12.63;;
85328;SDS011;76315;47.638;21.652;2024-02-26T00:07:46;28.47;;;13.50;;
85328;SDS011;76315;47.638;21.652;2024-02-26T00:10:14;30.40;;;14.73;;
85328;SDS011;76315;47.638;21.652;2024-02-26T00:12:40;28.30;;;14.93;;
85328;SDS011;76315;47.638;21.652;2024-02-26T00:15:06;26.60;;;13.77;;
85328;SDS011;76315;47.638;21.652;2024-02-26T00:17:33;26.47;;;13.13;;
85328;SDS011;76315;47.638;21.652;2024-02-26T00:19:58;28.70;;;13.48;;
85328;SDS011;76315;47.638;21.652;2024-02-26T00:22:25;25.93;;;13.63;;
85328;SDS011;76315;47.638;21.652;2024-02-26T00:24:51;27.35;;;15.02;;
85328;SDS011;76315;47.638;21.652;2024-02-26T00:27:17;25.07;;;13.50;;
85328;SDS011;76315;47.638;21.652;2024-02-26T00:29:42;29.30;;;14.02;;
85328;SDS011;76315;47.638;21.652;2024-02-26T00:32:08;24.80;;;14.10;;
85328;SDS011;76315;47.638;21.652;2024-02-26T00:34:33;31.95;;;14.85;;
85328;SDS011;76315;47.638;21.652;2024-02-26T00:36:59;30.77;;;14.17;;
85328;SDS011;76315;47.638;21.652;2024-02-26T00:39:24;28.10;;;14.13;;
85328;SDS011;76315;47.638;21.652;2024-02-26T00:41:53;28.30;;;14.82;;
85328;SDS011;76315;47.638;21.652;2024-02-26T00:44:19;29.20;;;13.50;;
85328;SDS011;76315;47.638;21.652;2024-02-26T00:46:44;26.10;;;13.80;;
85328;SDS011;76315;47.638;21.652;2024-02-26T00:49:10;25.10;;;14.47;;
85328;SDS011;76315;47.638;21.652;2024-02-26T00:51:36;26.65;;;14.57;;
85328;SDS011;76315;47.638;21.652;2024-02-26T00:54:01;30.93;;;13.77;;
85328;SDS011;76315;47.638;21.652;2024-02-26T00:56:27;24.15;;;13.75;;
85328;SDS011;76315;47.638;21.652;2024-02-26T00:58:52;27.43;;;13.73;;
85328;SDS011;76315;47.638;21.652;2024-02-26T01:01:18;27.37;;;14.17;;
85328;SDS011;76315;47.638;21.652;2024-02-26T01:03:43;27.33;;;13.90;;
85328;SDS011;76315;47.638;21.652;2024-02-26T01:06:09;25.80;;;14.03;;
85328;SDS011;76315;47.638;21.652;2024-02-26T01:08:35;26.73;;;12.80;;
85328;SDS011;76315;47.638;21.652;2024-02-26T01:11:00;35.70;;;17.30;;
85328;SDS011;76315;47.638;21.652;2024-02-26T01:13:26;26.50;;;13.70;;
85328;SDS011;76315;47.638;21.652;2024-02-26T01:15:52;23.23;;;13.48;;
85328;SDS011;76315;47.638;21.652;2024-02-26T01:18:17;23.07;;;12.40;;
85328;SDS011;76315;47.638;21.652;2024-02-26T01:20:43;26.83;;;13.23;;
85328;SDS011;76315;47.638;21.652;2024-02-26T01:23:08;26.13;;;13.48;;
85328;SDS011;76315;47.638;21.652;2024-02-26T01:25:34;26.50;;;13.37;;
85328;SDS011;76315;47.638;21.652;2024-02-26T01:27:59;25.43;;;13.43;;
85328;SDS011;76315;47.638;21.652;2024-02-26T01:30:25;25.25;;;13.32;;
85328;SDS011;76315;47.638;21.652;2024-02-26T01:32:51;27.90;;;14.10;;
85328;SDS011;76315;47.638;21.652;2024-02-26T01:35:16;26.77;;;13.27;;
85328;SDS011;76315;47.638;21.652;2024-02-26T01:37:42;28.83;;;14.98;;
85328;SDS011;76315;47.638;21.652;2024-02-26T01:40:07;23.13;;;12.70;;
85328;SDS011;76315;47.638;21.652;2024-02-26T01:42:34;24.85;;;13.63;;
85328;SDS011;76315;47.638;21.652;2024-02-26T01:45:00;23.70;;;13.35;;
85328;SDS011;76315;47.638;21.652;2024-02-26T01:47:26;26.20;;;13.30;;
85328;SDS011;76315;47.638;21.652;2024-02-26T01:49:52;24.20;;;12.57;;
85328;SDS011;76315;47.638;21.652;2024-02-26T01:52:18;27.85;;;13.05;;
85328;SDS011;76315;47.638;21.652;2024-02-26T01:54:44;25.27;;;13.13;;
85328;SDS011;76315;47.638;21.652;2024-02-26T01:57:10;24.77;;;13.68;;
85328;SDS011;76315;47.638;21.652;2024-02-26T01:59:36;23.13;;;13.70;;
85328;SDS011;76315;47.638;21.652;2024-02-26T02:02:03;28.80;;;15.10;;
85328;SDS011;76315;47.638;21.652;2024-02-26T02:04:31;27.75;;;13.25;;
85328;SDS011;76315;47.638;21.652;2024-02-26T02:06:57;23.20;;;13.18;;
85328;SDS011;76315;47.638;21.652;2024-02-26T02:09:23;25.60;;;13.82;;
85328;SDS011;76315;47.638;21.652;2024-02-26T02:11:48;26.05;;;13.30;;
85328;SDS011;76315;47.638;21.652;2024-02-26T02:14:14;29.13;;;13.87;;
85328;SDS011;76315;47.638;21.652;2024-02-26T02:16:40;27.08;;;12.43;;
85328;SDS011;76315;47.638;21.652;2024-02-26T02:19:06;24.53;;;13.07;;
85328;SDS011;76315;47.638;21.652;2024-02-26T02:21:31;25.83;;;12.93;;
85328;SDS011;76315;47.638;21.652;2024-02-26T02:23:57;27.13;;;13.63;;
85328;SDS011;76315;47.638;21.652;2024-02-26T02:26:23;25.08;;;13.50;;
85328;SDS011;76315;47.638;21.652;2024-02-26T02:28:49;27.13;;;14.00;;
85328;SDS011;76315;47.638;21.652;2024-02-26T02:31:14;30.53;;;14.97;;
85328;SDS011;76315;47.638;21.652;2024-02-26T02:33:41;31.92;;;15.40;;
85328;SDS011;76315;47.638;21.652;2024-02-26T02:36:06;29.02;;;15.13;;
85328;SDS011;76315;47.638;21.652;2024-02-26T02:38:35;29.47;;;14.77;;
85328;SDS011;76315;47.638;21.652;2024-02-26T02:41:06;30.75;;;14.82;;
85328;SDS011;76315;47.638;21.652;2024-02-26T02:43:32;30.17;;;14.82;;
85328;SDS011;76315;47.638;21.652;2024-02-26T02:45:58;27.47;;;14.67;;
85328;SDS011;76315;47.638;21.652;2024-02-26T02:48:23;30.13;;;14.97;;
85328;SDS011;76315;47.638;21.652;2024-02-26T02:50:49;28.58;;;14.15;;
85328;SDS011;76315;47.638;21.652;2024-02-26T02:53:14;28.00;;;14.50;;
85328;SDS011;76315;47.638;21.652;2024-02-26T02:55:41;28.58;;;14.35;;
85328;SDS011;76315;47.638;21.652;2024-02-26T02:58:07;24.03;;;12.13;;
85328;SDS011;76315;47.638;21.652;2024-02-26T03:00:32;26.10;;;13.40;;
85328;SDS011;76315;47.638;21.652;2024-02-26T03:02:58;28.60;;;13.07;;
85328;SDS011;76315;47.638;21.652;2024-02-26T03:05:23;23.30;;;12.83;;
85328;SDS011;76315;47.638;21.652;2024-02-26T03:07:49;34.20;;;14.80;;
85328;SDS011;76315;47.638;21.652;2024-02-26T03:10:14;25.85;;;13.35;;
85328;SDS011;76315;47.638;21.652;2024-02-26T03:12:50;26.13;;;13.07;;
85328;SDS011;76315;47.638;21.652;2024-02-26T03:15:15;30.92;;;16.30;;
85328;SDS011;76315;47.638;21.652;2024-02-26T03:17:41;24.93;;;12.70;;
85328;SDS011;76315;47.638;21.652;2024-02-26T03:20:07;23.30;;;11.95;;
85328;SDS011;76315;47.638;21.652;2024-02-26T03:22:34;22.97;;;12.40;;
85328;SDS011;76315;47.638;21.652;2024-02-26T03:25:00;24.80;;;12.63;;
85328;SDS011;76315;47.638;21.652;2024-02-26T03:27:26;24.10;;;12.43;;
85328;SDS011;76315;47.638;21.652;2024-02-26T03:29:51;24.55;;;11.55;;
85328;SDS011;76315;47.638;21.652;2024-02-26T03:32:17;28.57;;;13.33;;
85328;SDS011;76315;47.638;21.652;2024-02-26T03:34:43;21.85;;;13.00;;
85328;SDS011;76315;47.638;21.652;2024-02-26T03:37:09;25.23;;;13.23;;
85328;SDS011;76315;47.638;21.652;2024-02-26T03:39:36;26.25;;;13.63;;
85328;SDS011;76315;47.638;21.652;2024-02-26T03:42:02;26.15;;;12.70;;
85328;SDS011;76315;47.638;21.652;2024-02-26T03:44:28;26.77;;;13.80;;
85328;SDS011;76315;47.638;21.652;2024-02-26T03:46:53;30.00;;;13.43;;
85328;SDS011;76315;47.638;21.652;2024-02-26T03:49:19;25.67;;;13.17;;
85328;SDS011;76315;47.638;21.652;2024-02-26T03:51:44;27.58;;;13.98;;
85328;SDS011;76315;47.638;21.652;2024-02-26T03:54:10;27.90;;;13.50;;
85328;SDS011;76315;47.638;21.652;2024-02-26T03:56:35;28.07;;;14.00;;
85328;SDS011;76315;47.638;21.652;2024-02-26T03:59:01;22.83;;;12.60;;
85328;SDS011;76315;47.638;21.652;2024-02-26T04:01:27;27.80;;;13.77;;
85328;SDS011;76315;47.638;21.652;2024-02-26T04:03:53;28.60;;;13.52;;
85328;SDS011;76315;47.638;21.652;2024-02-26T04:06:19;29.15;;;13.90;;
85328;SDS011;76315;47.638;21.652;2024-02-26T04:08:46;30.00;;;13.83;;
85328;SDS011;76315;47.638;21.652;2024-02-26T04:11:12;24.42;;;12.70;;
85328;SDS011;76315;47.638;21.652;2024-02-26T04:13:38;30.30;;;15.32;;
85328;SDS011;76315;47.638;21.652;2024-02-26T04:16:04;27.88;;;13.98;;
85328;SDS011;76315;47.638;21.652;2024-02-26T04:18:31;31.33;;;14.90;;
85328;SDS011;76315;47.638;21.652;2024-02-26T04:20:57;30.23;;;14.55;;
85328;SDS011;76315;47.638;21.652;2024-02-26T04:23:22;28.10;;;14.68;;
85328;SDS011;76315;47.638;21.652;2024-02-26T04:25:48;29.03;;;15.50;;
85328;SDS011;76315;47.638;21.652;2024-02-26T04:28:13;28.17;;;13.93;;
85328;SDS011;76315;47.638;21.652;2024-02-26T04:30:39;31.95;;;13.68;;
85328;SDS011;76315;47.638;21.652;2024-02-26T04:33:05;28.70;;;14.93;;
85328;SDS011;76315;47.638;21.652;2024-02-26T04:35:30;26.70;;;12.60;;
85328;SDS011;76315;47.638;21.652;2024-02-26T04:37:56;24.70;;;12.15;;
85328;SDS011;76315;47.638;21.652;2024-02-26T04:40:21;25.90;;;12.20;;
85328;SDS011;76315;47.638;21.652;2024-02-26T04:42:47;24.15;;;12.77;;
85328;SDS011;76315;47.638;21.652;2024-02-26T04:45:12;24.23;;;11.23;;
85328;SDS011;76315;47.638;21.652;2024-02-26T04:47:38;23.03;;;10.80;;
85328;SDS011;76315;47.638;21.652;2024-02-26T04:50:04;18.92;;;9.85;;
85328;SDS011;76315;47.638;21.652;2024-02-26T04:52:30;26.33;;;11.02;;
85328;SDS011;76315;47.638;21.652;2024-02-26T04:54:56;25.40;;;11.17;;
85328;SDS011;76315;47.638;21.652;2024-02-26T04:57:21;23.75;;;10.45;;
85328;SDS011;76315;47.638;21.652;2024-02-26T04:59:47;21.48;;;10.73;;
85328;SDS011;76315;47.638;21.652;2024-02-26T05:02:13;22.03;;;10.17;;
85328;SDS011;76315;47.638;21.652;2024-02-26T05:04:38;27.35;;;10.90;;
85328;SDS011;76315;47.638;21.652;2024-02-26T05:07:04;23.00;;;10.95;;
85328;SDS011;76315;47.638;21.652;2024-02-26T05:09:30;20.30;;;10.27;;
85328;SDS011;76315;47.638;21.652;2024-02-26T05:11:55;20.67;;;10.43;;
85328;SDS011;76315;47.638;21.652;2024-02-26T05:14:21;20.90;;;9.75;;
85328;SDS011;76315;47.638;21.652;2024-02-26T05:16:46;21.20;;;9.47;;
85328;SDS011;76315;47.638;21.652;2024-02-26T05:19:12;18.83;;;10.05;;
85328;SDS011;76315;47.638;21.652;2024-02-26T05:21:38;21.43;;;10.60;;
85328;SDS011;76315;47.638;21.652;2024-02-26T05:24:05;19.80;;;9.68;;
85328;SDS011;76315;47.638;21.652;2024-02-26T05:26:31;23.50;;;9.70;;
85328;SDS011;76315;47.638;21.652;2024-02-26T05:28:56;20.87;;;8.50;;
85328;SDS011;76315;47.638;21.652;2024-02-26T05:31:24;22.55;;;9.40;;
85328;SDS011;76315;47.638;21.652;2024-02-26T05:33:51;23.67;;;10.10;;
85328;SDS011;76315;47.638;21.652;2024-02-26T05:36:22;20.90;;;9.27;;
85328;SDS011;76315;47.638;21.652;2024-02-26T05:38:48;23.20;;;9.57;;
85328;SDS011;76315;47.638;21.652;2024-02-26T05:41:17;20.05;;;9.23;;
85328;SDS011;76315;47.638;21.652;2024-02-26T05:43:51;18.77;;;9.03;;
85328;SDS011;76315;47.638;21.652;2024-02-26T05:46:17;20.10;;;9.60;;
85328;SDS011;76315;47.638;21.652;2024-02-26T05:48:44;27.77;;;10.40;;
85328;SDS011;76315;47.638;21.652;2024-02-26T05:51:09;19.20;;;9.77;;
85328;SDS011;76315;47.638;21.652;2024-02-26T05:53:35;17.80;;;9.17;;
85328;SDS011;76315;47.638;21.652;2024-02-26T05:56:01;22.00;;;9.63;;
85328;SDS011;76315;47.638;21.652;2024-02-26T05:58:26;18.47;;;8.80;;
85328;SDS011;76315;47.638;21.652;2024-02-26T06:00:52;22.40;;;8.97;;
85328;SDS011;76315;47.638;21.652;2024-02-26T06:03:17;22.30;;;9.80;;
85328;SDS011;76315;47.638;21.652;2024-02-26T06:05:43;17.03;;;9.93;;
85328;SDS011;76315;47.638;21.652;2024-02-26T06:08:08;21.83;;;9.90;;
85328;SDS011;76315;47.638;21.652;2024-02-26T06:10:34;21.67;;;10.30;;
85328;SDS011;76315;47.638;21.652;2024-02-26T06:13:00;20.40;;;9.27;;
85328;SDS011;76315;47.638;21.652;2024-02-26T06:15:25;20.15;;;10.60;;
85328;SDS011;76315;47.638;21.652;2024-02-26T06:17:51;19.83;;;9.48;;
85328;SDS011;76315;47.638;21.652;2024-02-26T06:20:16;18.53;;;11.37;;
85328;SDS011;76315;47.638;21.652;2024-02-26T06:22:42;20.45;;;10.20;;
85328;SDS011;76315;47.638;21.652;2024-02-26T06:25:08;23.95;;;9.90;;
85328;SDS011;76315;47.638;21.652;2024-02-26T06:27:34;18.42;;;10.45;;
85328;SDS011;76315;47.638;21.652;2024-02-26T06:29:59;20.45;;;10.05;;
85328;SDS011;76315;47.638;21.652;2024-02-26T06:32:25;19.33;;;10.07;;
85328;SDS011;76315;47.638;21.652;2024-02-26T06:34:52;17.63;;;8.47;;
85328;SDS011;76315;47.638;21.652;2024-02-26T06:37:18;17.42;;;9.70;;
85328;SDS011;76315;47.638;21.652;2024-02-26T06:39:43;20.27;;;9.07;;
85328;SDS011;76315;47.638;21.652;2024-02-26T06:42:09;15.97;;;8.63;;
85328;SDS011;76315;47.638;21.652;2024-02-26T06:44:35;23.25;;;9.60;;
85328;SDS011;76315;47.638;21.652;2024-02-26T06:47:00;13.13;;;7.27;;
85328;SDS011;76315;47.638;21.652;2024-02-26T06:49:26;15.13;;;7.90;;
85328;SDS011;76315;47.638;21.652;2024-02-26T06:51:53;16.85;;;7.72;;
85328;SDS011;76315;47.638;21.652;2024-02-26T06:54:18;13.83;;;7.40;;
85328;SDS011;76315;47.638;21.652;2024-02-26T06:56:44;17.27;;;8.00;;
85328;SDS011;76315;47.638;21.652;2024-02-26T06:59:10;14.70;;;7.20;;
85328;SDS011;76315;47.638;21.652;2024-02-26T07:01:35;17.55;;;7.50;;
85328;SDS011;76315;47.638;21.652;2024-02-26T07:04:01;14.80;;;6.87;;
85328;SDS011;76315;47.638;21.652;2024-02-26T07:06:27;13.07;;;6.83;;
85328;SDS011;76315;47.638;21.652;2024-02-26T07:08:52;12.68;;;6.65;;
85328;SDS011;76315;47.638;21.652;2024-02-26T07:11:19;15.50;;;6.75;;
85328;SDS011;76315;47.638;21.652;2024-02-26T07:13:45;14.98;;;6.18;;
85328;SDS011;76315;47.638;21.652;2024-02-26T07:16:11;11.63;;;6.20;;
85328;SDS011;76315;47.638;21.652;2024-02-26T07:18:37;14.07;;;5.65;;
85328;SDS011;76315;47.638;21.652;2024-02-26T07:21:04;10.02;;;6.03;;
85328;SDS011;76315;47.638;21.652;2024-02-26T07:23:29;12.97;;;6.43;;
85328;SDS011;76315;47.638;21.652;2024-02-26T07:25:55;14.13;;;5.63;;
85328;SDS011;76315;47.638;21.652;2024-02-26T07:28:20;13.70;;;6.63;;
85328;SDS011;76315;47.638;21.652;2024-02-26T07:30:46;11.47;;;6.30;;
85328;SDS011;76315;47.638;21.652;2024-02-26T07:33:12;15.68;;;6.68;;
85328;SDS011;76315;47.638;21.652;2024-02-26T07:35:41;10.85;;;5.57;;
85328;SDS011;76315;47.638;21.652;2024-02-26T07:38:06;15.43;;;5.73;;
85328;SDS011;76315;47.638;21.652;2024-02-26T07:40:32;15.77;;;6.30;;
85328;SDS011;76315;47.638;21.652;2024-02-26T07:42:57;15.68;;;6.20;;
85328;SDS011;76315;47.638;21.652;2024-02-26T07:45:23;12.17;;;5.93;;
85328;SDS011;76315;47.638;21.652;2024-02-26T07:47:48;10.10;;;5.70;;
85328;SDS011;76315;47.638;21.652;2024-02-26T07:50:16;12.77;;;5.70;;
85328;SDS011;76315;47.638;21.652;2024-02-26T07:52:45;11.10;;;5.70;;
85328;SDS011;76315;47.638;21.652;2024-02-26T07:55:12;15.85;;;6.45;;
85328;SDS011;76315;47.638;21.652;2024-02-26T07:57:37;10.27;;;6.07;;
85328;SDS011;76315;47.638;21.652;2024-02-26T08:00:06;12.67;;;6.17;;
85328;SDS011;76315;47.638;21.652;2024-02-26T08:02:34;14.77;;;6.30;;
85328;SDS011;76315;47.638;21.652;2024-02-26T08:05:00;10.30;;;6.43;;
85328;SDS011;76315;47.638;21.652;2024-02-26T08:07:25;13.47;;;6.73;;
85328;SDS011;76315;47.638;21.652;2024-02-26T08:09:51;13.52;;;6.18;;
85328;SDS011;76315;47.638;21.652;2024-02-26T08:12:17;11.40;;;5.57;;
85328;SDS011;76315;47.638;21.652;2024-02-26T08:14:42;13.60;;;5.90;;
85328;SDS011;76315;47.638;21.652;2024-02-26T08:17:09;10.88;;;5.93;;
85328;SDS011;76315;47.638;21.652;2024-02-26T08:19:34;10.98;;;5.63;;
85328;SDS011;76315;47.638;21.652;2024-02-26T08:22:01;12.68;;;5.35;;
85328;SDS011;76315;47.638;21.652;2024-02-26T08:24:26;11.23;;;5.80;;
85328;SDS011;76315;47.638;21.652;2024-02-26T08:26:53;12.20;;;5.38;;
85328;SDS011;76315;47.638;21.652;2024-02-26T08:29:19;11.25;;;4.40;;
85328;SDS011;76315;47.638;21.652;2024-02-26T08:31:44;10.03;;;4.87;;
85328;SDS011;76315;47.638;21.652;2024-02-26T08:34:10;12.25;;;5.25;;
85328;SDS011;76315;47.638;21.652;2024-02-26T08:36:35;9.77;;;5.20;;
85328;SDS011;76315;47.638;21.652;2024-02-26T08:39:01;9.30;;;5.77;;
85328;SDS011;76315;47.638;21.652;2024-02-26T08:41:27;9.17;;;4.53;;
85328;SDS011;76315;47.638;21.652;2024-02-26T08:43:53;8.52;;;4.65;;
85328;SDS011;76315;47.638;21.652;2024-02-26T08:46:19;10.13;;;4.43;;
85328;SDS011;76315;47.638;21.652;2024-02-26T08:48:45;8.90;;;4.33;;
85328;SDS011;76315;47.638;21.652;2024-02-26T08:51:11;8.73;;;3.87;;
85328;SDS011;76315;47.638;21.652;2024-02-26T08:53:36;12.82;;;4.20;;
85328;SDS011;76315;47.638;21.652;2024-02-26T08:56:02;9.33;;;4.73;;
85328;SDS011;76315;47.638;21.652;2024-02-26T08:58:28;8.52;;;4.10;;
85328;SDS011;76315;47.638;21.652;2024-02-26T09:00:54;9.52;;;4.50;;
85328;SDS011;76315;47.638;21.652;2024-02-26T09:03:20;8.50;;;3.87;;
85328;SDS011;76315;47.638;21.652;2024-02-26T09:05:46;8.48;;;3.85;;
85328;SDS011;76315;47.638;21.652;2024-02-26T09:08:11;8.87;;;3.73;;
85328;SDS011;76315;47.638;21.652;2024-02-26T09:10:37;6.63;;;4.30;;
85328;SDS011;76315;47.638;21.652;2024-02-26T09:13:03;8.87;;;3.83;;
85328;SDS011;76315;47.638;21.652;2024-02-26T09:15:29;9.02;;;3.85;;
85328;SDS011;76315;47.638;21.652;2024-02-26T09:17:55;7.20;;;3.00;;
85328;SDS011;76315;47.638;21.652;2024-02-26T09:20:20;7.13;;;3.42;;
85328;SDS011;76315;47.638;21.652;2024-02-26T09:22:46;7.38;;;3.33;;
85328;SDS011;76315;47.638;21.652;2024-02-26T09:25:13;7.73;;;3.20;;
85328;SDS011;76315;47.638;21.652;2024-02-26T09:27:41;7.70;;;3.30;;
85328;SDS011;76315;47.638;21.652;2024-02-26T09:30:12;8.82;;;3.10;;
85328;SDS011;76315;47.638;21.652;2024-02-26T09:32:38;5.45;;;2.80;;
85328;SDS011;76315;47.638;21.652;2024-02-26T09:35:05;6.88;;;2.88;;
85328;SDS011;76315;47.638;21.652;2024-02-26T09:37:31;6.70;;;3.10;;
85328;SDS011;76315;47.638;21.652;2024-02-26T09:39:56;8.02;;;3.25;;
85328;SDS011;76315;47.638;21.652;2024-02-26T09:42:22;8.03;;;3.07;;
85328;SDS011;76315;47.638;21.652;2024-02-26T09:44:55;7.40;;;3.28;;
85328;SDS011;76315;47.638;21.652;2024-02-26T09:47:26;5.63;;;2.70;;
85328;SDS011;76315;47.638;21.652;2024-02-26T09:49:53;7.97;;;2.90;;
85328;SDS011;76315;47.638;21.652;2024-02-26T09:52:21;6.83;;;2.93;;
85328;SDS011;76315;47.638;21.652;2024-02-26T09:54:47;6.15;;;2.85;;
85328;SDS011;76315;47.638;21.652;2024-02-26T09:57:13;5.72;;;3.00;;
85328;SDS011;76315;47.638;21.652;2024-02-26T09:59:41;7.07;;;2.87;;
85328;SDS011;76315;47.638;21.652;2024-02-26T10:02:13;5.53;;;2.47;;
85328;SDS011;76315;47.638;21.652;2024-02-26T10:04:40;5.75;;;2.70;;
85328;SDS011;76315;47.638;21.652;2024-02-26T10:07:09;7.53;;;2.45;;
85328;SDS011;76315;47.638;21.652;2024-02-26T10:09:35;7.80;;;2.88;;
85328;SDS011;76315;47.638;21.652;2024-02-26T10:12:01;5.47;;;2.30;;
85328;SDS011;76315;47.638;21.652;2024-02-26T10:14:27;5.85;;;2.90;;
85328;SDS011;76315;47.638;21.652;2024-02-26T10:16:53;5.83;;;3.03;;
85328;SDS011;76315;47.638;21.652;2024-02-26T10:19:26;7.97;;;2.67;;
85328;SDS011;76315;47.638;21.652;2024-02-26T10:21:57;4.93;;;3.20;;
85328;SDS011;76315;47.638;21.652;2024-02-26T10:24:23;6.03;;;2.60;;
85328;SDS011;76315;47.638;21.652;2024-02-26T10:26:50;6.72;;;2.80;;
85328;SDS011;76315;47.638;21.652;2024-02-26T10:29:17;6.90;;;3.15;;
85328;SDS011;76315;47.638;21.652;2024-02-26T10:31:46;5.70;;;2.95;;
85328;SDS011;76315;47.638;21.652;2024-02-26T10:34:11;6.15;;;2.70;;
85328;SDS011;76315;47.638;21.652;2024-02-26T10:36:37;7.53;;;2.87;;
85328;SDS011;76315;47.638;21.652;2024-02-26T10:39:06;6.07;;;2.67;;
85328;SDS011;76315;47.638;21.652;2024-02-26T10:41:35;6.10;;;2.80;;
85328;SDS011;76315;47.638;21.652;2024-02-26T10:44:01;9.75;;;2.90;;
85328;SDS011;76315;47.638;21.652;2024-02-26T10:46:27;6.13;;;2.67;;
85328;SDS011;76315;47.638;21.652;2024-02-26T10:48:53;7.75;;;2.65;;
85328;SDS011;76315;47.638;21.652;2024-02-26T10:51:25;5.47;;;2.90;;
85328;SDS011;76315;47.638;21.652;2024-02-26T10:53:59;5.80;;;2.67;;
85328;SDS011;76315;47.638;21.652;2024-02-26T10:56:27;6.10;;;2.72;;
85328;SDS011;76315;47.638;21.652;2024-02-26T10:58:57;6.07;;;2.75;;
85328;SDS011;76315;47.638;21.652;2024-02-26T11:01:26;5.78;;;2.75;;
85328;SDS011;76315;47.638;21.652;2024-02-26T11:03:54;8.40;;;2.80;;
85328;SDS011;76315;47.638;21.652;2024-02-26T11:06:21;6.57;;;2.50;;
85328;SDS011;76315;47.638;21.652;2024-02-26T11:08:48;6.53;;;2.90;;
85328;SDS011;76315;47.638;21.652;2024-02-26T11:11:15;5.63;;;2.30;;
85328;SDS011;76315;47.638;21.652;2024-02-26T11:13:41;5.97;;;2.42;;
85328;SDS011;76315;47.638;21.652;2024-02-26T11:16:10;5.70;;;2.50;;
85328;SDS011;76315;47.638;21.652;2024-02-26T11:18:36;5.77;;;2.30;;
85328;SDS011;76315;47.638;21.652;2024-02-26T11:21:03;6.05;;;2.65;;
85328;SDS011;76315;47.638;21.652;2024-02-26T11:23:29;7.15;;;2.90;;
85328;SDS011;76315;47.638;21.652;2024-02-26T11:25:55;5.93;;;2.40;;
85328;SDS011;76315;47.638;21.652;2024-02-26T11:28:22;5.28;;;2.30;;
85328;SDS011;76315;47.638;21.652;2024-02-26T11:30:50;7.30;;;2.70;;
85328;SDS011;76315;47.638;21.652;2024-02-26T11:33:16;5.65;;;2.50;;
85328;SDS011;76315;47.638;21.652;2024-02-26T11:35:43;6.40;;;3.10;;
85328;SDS011;76315;47.638;21.652;2024-02-26T11:38:12;5.00;;;2.40;;
85328;SDS011;76315;47.638;21.652;2024-02-26T11:40:43;6.10;;;2.58;;
85328;SDS011;76315;47.638;21.652;2024-02-26T11:43:09;7.03;;;2.72;;
85328;SDS011;76315;47.638;21.652;2024-02-26T11:48:11;4.70;;;2.65;;
85328;SDS011;76315;47.638;21.652;2024-02-26T11:50:45;5.80;;;2.58;;
85328;SDS011;76315;47.638;21.652;2024-02-26T11:53:45;7.10;;;2.70;;
85328;SDS011;76315;47.638;21.652;2024-02-26T11:58:42;6.23;;;2.50;;
85328;SDS011;76315;47.638;21.652;2024-02-26T12:04:22;6.15;;;2.60;;
85328;SDS011;76315;47.638;21.652;2024-02-26T12:06:58;6.78;;;2.53;;
85328;SDS011;76315;47.638;21.652;2024-02-26T12:09:41;8.00;;;3.03;;
85328;SDS011;76315;47.638;21.652;2024-02-26T12:12:13;7.90;;;2.83;;
85328;SDS011;76315;47.638;21.652;2024-02-26T12:14:52;7.05;;;2.70;;
85328;SDS011;76315;47.638;21.652;2024-02-26T12:17:20;5.15;;;2.97;;
85328;SDS011;76315;47.638;21.652;2024-02-26T12:19:47;5.95;;;2.83;;
85328;SDS011;76315;47.638;21.652;2024-02-26T12:22:16;5.97;;;3.22;;
85328;SDS011;76315;47.638;21.652;2024-02-26T12:24:42;5.20;;;2.57;;
85328;SDS011;76315;47.638;21.652;2024-02-26T12:27:08;7.68;;;2.83;;
85328;SDS011;76315;47.638;21.652;2024-02-26T12:29:34;5.13;;;2.60;;
85328;SDS011;76315;47.638;21.652;2024-02-26T12:31:59;9.38;;;2.58;;
85328;SDS011;76315;47.638;21.652;2024-02-26T12:34:26;6.53;;;2.70;;
85328;SDS011;76315;47.638;21.652;2024-02-26T12:36:51;6.22;;;2.63;;
85328;SDS011;76315;47.638;21.652;2024-02-26T12:39:18;5.47;;;2.47;;
85328;SDS011;76315;47.638;21.652;2024-02-26T12:41:45;6.33;;;2.70;;
85328;SDS011;76315;47.638;21.652;2024-02-26T12:44:15;8.30;;;3.03;;
85328;SDS011;76315;47.638;21.652;2024-02-26T12:46:41;9.98;;;3.08;;
85328;SDS011;76315;47.638;21.652;2024-02-26T12:49:07;6.27;;;2.87;;
85328;SDS011;76315;47.638;21.652;2024-02-26T12:51:32;5.05;;;2.55;;
85328;SDS011;76315;47.638;21.652;2024-02-26T12:53:58;5.10;;;2.77;;
85328;SDS011;76315;47.638;21.652;2024-02-26T12:56:24;5.60;;;2.60;;
85328;SDS011;76315;47.638;21.652;2024-02-26T12:58:51;6.28;;;2.80;;
85328;SDS011;76315;47.638;21.652;2024-02-26T13:01:18;7.07;;;3.05;;
85328;SDS011;76315;47.638;21.652;2024-02-26T13:03:47;5.00;;;2.63;;
85328;SDS011;76315;47.638;21.652;2024-02-26T13:06:14;6.28;;;2.63;;
85328;SDS011;76315;47.638;21.652;2024-02-26T13:08:39;6.57;;;2.80;;
85328;SDS011;76315;47.638;21.652;2024-02-26T13:11:05;5.93;;;2.87;;
85328;SDS011;76315;47.638;21.652;2024-02-26T13:13:31;7.70;;;2.83;;
85328;SDS011;76315;47.638;21.652;2024-02-26T13:16:07;5.40;;;2.50;;
85328;SDS011;76315;47.638;21.652;2024-02-26T13:18:35;7.40;;;2.83;;
85328;SDS011;76315;47.638;21.652;2024-02-26T13:21:14;5.60;;;2.40;;
85328;SDS011;76315;47.638;21.652;2024-02-26T13:23:40;5.45;;;2.45;;
85328;SDS011;76315;47.638;21.652;2024-02-26T13:26:06;6.93;;;2.73;;
85328;SDS011;76315;47.638;21.652;2024-02-26T13:28:33;7.22;;;2.72;;
85328;SDS011;76315;47.638;21.652;2024-02-26T13:30:59;5.80;;;2.80;;
85328;SDS011;76315;47.638;21.652;2024-02-26T13:33:30;8.70;;;3.10;;
85328;SDS011;76315;47.638;21.652;2024-02-26T13:35:56;6.47;;;2.50;;
85328;SDS011;76315;47.638;21.652;2024-02-26T13:38:22;6.50;;;2.70;;
85328;SDS011;76315;47.638;21.652;2024-02-26T13:40:49;8.15;;;3.20;;
85328;SDS011;76315;47.638;21.652;2024-02-26T13:43:15;5.68;;;2.28;;
85328;SDS011;76315;47.638;21.652;2024-02-26T13:45:40;5.27;;;2.57;;
85328;SDS011;76315;47.638;21.652;2024-02-26T13:48:06;4.87;;;2.97;;
85328;SDS011;76315;47.638;21.652;2024-02-26T13:50:33;9.38;;;2.80;;
85328;SDS011;76315;47.638;21.652;2024-02-26T13:52:58;6.37;;;3.17;;
85328;SDS011;76315;47.638;21.652;2024-02-26T13:55:27;6.53;;;2.53;;
85328;SDS011;76315;47.638;21.652;2024-02-26T13:57:55;7.70;;;2.92;;
85328;SDS011;76315;47.638;21.652;2024-02-26T14:00:21;6.45;;;2.85;;
85328;SDS011;76315;47.638;21.652;2024-02-26T14:02:47;7.33;;;2.80;;
85328;SDS011;76315;47.638;21.652;2024-02-26T14:05:16;5.00;;;2.75;;
85328;SDS011;76315;47.638;21.652;2024-02-26T14:07:42;8.02;;;3.35;;
85328;SDS011;76315;47.638;21.652;2024-02-26T14:10:08;8.07;;;2.77;;
85328;SDS011;76315;47.638;21.652;2024-02-26T14:12:37;6.68;;;2.83;;
85328;SDS011;76315;47.638;21.652;2024-02-26T14:15:04;5.30;;;2.90;;
85328;SDS011;76315;47.638;21.652;2024-02-26T14:17:31;5.80;;;2.42;;
85328;SDS011;76315;47.638;21.652;2024-02-26T14:19:59;6.73;;;2.93;;
85328;SDS011;76315;47.638;21.652;2024-02-26T14:22:25;7.10;;;2.95;;
85328;SDS011;76315;47.638;21.652;2024-02-26T14:24:55;4.53;;;2.43;;